createdAt,value
2023-05-02T00:02:31.880Z,95263.97
2023-05-02T00:05:15.451Z,95266.16
2023-05-02T00:07:58.876Z,95262.56
2023-05-02T00:10:43.645Z,95266.59
2023-05-02T00:13:27.110Z,95267.59
2023-05-02T00:16:11.260Z,95270.00
2023-05-02T00:18:54.684Z,95266.81
2023-05-02T00:21:37.785Z,95272.41
2023-05-02T00:24:22.029Z,95269.22
2023-05-02T00:27:07.137Z,95266.03
2023-05-02T00:29:50.291Z,95278.81
2023-05-02T00:32:33.966Z,95271.22
2023-05-02T00:35:17.196Z,95286.97
2023-05-02T00:38:01.248Z,95284.00
2023-05-02T00:40:46.154Z,95289.53
2023-05-02T00:43:33.455Z,95288.75
2023-05-02T00:46:16.750Z,95296.09
2023-05-02T00:49:00.745Z,95296.88
2023-05-02T00:51:44.158Z,95296.50
2023-05-02T00:54:27.377Z,95298.88
2023-05-02T00:57:12.137Z,95295.25
2023-05-02T00:59:57.469Z,95294.41
2023-05-02T01:02:51.015Z,95295.19
2023-05-02T01:05:46.333Z,95293.34
2023-05-02T01:08:38.638Z,95282.97
2023-05-02T01:11:34.069Z,95279.41
2023-05-02T01:14:18.497Z,95282.97
2023-05-02T01:17:06.306Z,95291.34
2023-05-02T01:19:54.163Z,95276.97
2023-05-02T01:22:41.202Z,95275.38
2023-05-02T01:25:31.117Z,95281.75
2023-05-02T01:28:29.087Z,95267.75
2023-05-02T01:31:15.247Z,95264.75
2023-05-02T01:34:00.279Z,95268.47
2023-05-02T01:36:46.922Z,95270.03
2023-05-02T01:39:31.620Z,95268.09
2023-05-02T01:42:16.646Z,95278.41
2023-05-02T01:45:01.518Z,95287.28
2023-05-02T01:47:47.820Z,95283.31
2023-05-02T01:50:31.503Z,95286.56
2023-05-02T01:53:15.884Z,95294.00
2023-05-02T01:56:00.885Z,95294.53
2023-05-02T01:58:47.148Z,95293.19
2023-05-02T02:01:31.864Z,95292.19
2023-05-02T02:04:19.056Z,95292.00
2023-05-02T02:07:07.654Z,95281.03
2023-05-02T02:09:51.374Z,95285.63
2023-05-02T02:12:43.911Z,95287.91
2023-05-02T02:15:30.563Z,95284.50
2023-05-02T02:18:19.875Z,95286.31
2023-05-02T02:21:08.168Z,95286.28
2023-05-02T02:23:57.387Z,95292.06
2023-05-02T02:26:40.792Z,95289.84
2023-05-02T02:29:23.954Z,95291.09
2023-05-02T02:32:07.328Z,95293.28
2023-05-02T02:34:50.630Z,95295.72
2023-05-02T02:37:41.187Z,95292.28
2023-05-02T02:40:29.952Z,95290.06
2023-05-02T02:43:20.857Z,95294.28
2023-05-02T02:46:18.491Z,95294.28
2023-05-02T02:49:16.594Z,95297.09
2023-05-02T02:52:09.190Z,95295.09
2023-05-02T02:55:00.036Z,95290.25
2023-05-02T02:57:52.802Z,95285.44
2023-05-02T03:00:37.858Z,95300.97
2023-05-02T03:03:25.210Z,95298.53
2023-05-02T03:06:08.751Z,95294.97
2023-05-02T03:08:54.248Z,95304.91
2023-05-02T03:11:38.822Z,95306.69
2023-05-02T03:14:22.147Z,95306.06
2023-05-02T03:17:05.385Z,95316.06
2023-05-02T03:19:48.825Z,95316.81
2023-05-02T03:22:33.270Z,95316.66
2023-05-02T03:25:16.626Z,95319.25
2023-05-02T03:28:02.448Z,95328.91
2023-05-02T03:30:46.072Z,95323.84
2023-05-02T03:33:29.332Z,95333.16
2023-05-02T03:36:12.528Z,95338.34
2023-05-02T03:38:56.089Z,95329.94
2023-05-02T03:41:39.258Z,95330.75
2023-05-02T03:44:23.909Z,95324.31
2023-05-02T03:47:07.654Z,95332.84
2023-05-02T03:49:53.193Z,95338.38
2023-05-02T03:52:36.457Z,95334.53
2023-05-02T03:55:19.706Z,95337.28
2023-05-02T03:58:02.824Z,95340.47
2023-05-02T04:00:47.489Z,95336.50
2023-05-02T04:03:31.149Z,95334.28
2023-05-02T04:06:14.449Z,95326.91
2023-05-02T04:08:58.592Z,95335.28
2023-05-02T04:11:43.240Z,95336.88
2023-05-02T04:14:26.574Z,95339.06
2023-05-02T04:17:11.902Z,95337.22
2023-05-02T04:19:55.347Z,95337.69
2023-05-02T04:22:39.768Z,95347.50
2023-05-02T04:25:23.016Z,95349.72
2023-05-02T04:28:07.363Z,95351.69
2023-05-02T04:30:51.029Z,95337.50
2023-05-02T04:33:36.601Z,95348.97
2023-05-02T04:36:20.253Z,95348.63
2023-05-02T04:39:03.790Z,95351.47
2023-05-02T04:41:47.036Z,95356.44
2023-05-02T04:44:30.150Z,95353.38
2023-05-02T04:47:13.296Z,95358.16
2023-05-02T04:49:58.093Z,95357.88
2023-05-02T04:52:42.094Z,95357.00
2023-05-02T04:55:25.273Z,95350.88
2023-05-02T04:58:08.434Z,95359.66
2023-05-02T05:00:51.478Z,95344.91
2023-05-02T05:03:34.643Z,95351.41
2023-05-02T05:06:19.440Z,95351.72
2023-05-02T05:09:02.664Z,95359.00
2023-05-02T05:11:46.295Z,95360.38
2023-05-02T05:14:31.523Z,95363.84
2023-05-02T05:17:14.738Z,95352.53
2023-05-02T05:19:57.954Z,95359.94
2023-05-02T05:22:43.267Z,95359.63
2023-05-02T05:25:27.315Z,95357.56
2023-05-02T05:28:10.422Z,95361.44
2023-05-02T05:30:53.877Z,95356.06
2023-05-02T05:33:37.519Z,95370.59
2023-05-02T05:36:22.849Z,95377.25
2023-05-02T05:39:08.038Z,95364.81
2023-05-02T05:41:51.196Z,95365.28
2023-05-02T05:44:34.265Z,95366.16
2023-05-02T05:47:22.056Z,95363.97
2023-05-02T05:50:06.268Z,95361.75
2023-05-02T05:52:49.402Z,95359.63
2023-05-02T05:55:35.907Z,95357.66
2023-05-02T05:58:20.407Z,95362.84
2023-05-02T06:01:03.554Z,95365.78
2023-05-02T06:03:46.799Z,95368.84
2023-05-02T06:06:30.280Z,95372.78
2023-05-02T06:09:13.886Z,95366.59
2023-05-02T06:11:58.383Z,95379.22
2023-05-02T06:14:41.739Z,95365.88
2023-05-02T06:17:24.989Z,95371.31
2023-05-02T06:20:12.549Z,95356.63
2023-05-02T06:22:56.183Z,95360.53
2023-05-02T06:25:40.254Z,95362.34
2023-05-02T06:28:24.735Z,95360.94
2023-05-02T06:31:10.837Z,95355.78
2023-05-02T06:33:54.098Z,95363.81
2023-05-02T06:36:44.778Z,95371.97
2023-05-02T06:39:34.341Z,95349.16
2023-05-02T06:42:17.414Z,95350.19
2023-05-02T06:45:01.880Z,95359.00
2023-05-02T06:47:45.300Z,95352.78
2023-05-02T06:50:28.526Z,95350.94
2023-05-02T06:53:11.593Z,95351.22
2023-05-02T06:55:55.067Z,95342.63
2023-05-02T06:58:38.235Z,95342.06
2023-05-02T07:01:23.521Z,95358.25
2023-05-02T07:04:06.883Z,95338.22
2023-05-02T07:06:50.123Z,95334.88
2023-05-02T07:09:33.500Z,95341.75
2023-05-02T07:12:16.561Z,95351.25
2023-05-02T07:14:59.617Z,95345.59
2023-05-02T07:17:44.823Z,95347.94
2023-05-02T07:20:28.059Z,95349.38
2023-05-02T07:23:11.138Z,95347.06
2023-05-02T07:25:54.202Z,95350.59
2023-05-02T07:28:37.280Z,95349.00
2023-05-02T07:31:20.566Z,95347.81
2023-05-02T07:34:05.043Z,95344.50
2023-05-02T07:36:48.164Z,95340.56
2023-05-02T07:39:31.377Z,95346.41
2023-05-02T07:42:14.428Z,95344.97
2023-05-02T07:44:57.667Z,95351.94
2023-05-02T07:47:42.004Z,95352.88
2023-05-02T07:50:27.384Z,95346.81
2023-05-02T07:53:11.273Z,95354.59
2023-05-02T07:55:54.520Z,95358.31
2023-05-02T07:58:38.446Z,95370.59
2023-05-02T08:01:21.563Z,95362.31
2023-05-02T08:04:05.681Z,95352.16
2023-05-02T08:06:50.556Z,95345.50
2023-05-02T08:09:33.990Z,95346.03
2023-05-02T08:12:17.066Z,95357.59
2023-05-02T08:15:00.241Z,95345.69
2023-05-02T08:17:43.647Z,95355.84
2023-05-02T08:20:26.967Z,95337.94
2023-05-02T08:23:11.485Z,95356.94
2023-05-02T08:25:55.604Z,95342.56
2023-05-02T08:28:39.123Z,95330.41
2023-05-02T08:31:23.048Z,95340.59
2023-05-02T08:34:07.175Z,95339.28
2023-05-02T08:36:50.312Z,95340.25
2023-05-02T08:39:35.935Z,95348.63
2023-05-02T08:42:21.005Z,95336.69
2023-05-02T08:45:04.272Z,95349.69
2023-05-02T08:47:49.487Z,95355.91
2023-05-02T08:50:32.819Z,95343.22
2023-05-02T08:53:15.997Z,95346.94
2023-05-02T08:56:00.755Z,95341.88
2023-05-02T08:58:43.872Z,95333.66
2023-05-02T09:01:31.708Z,95335.53
2023-05-02T09:04:16.044Z,95332.50
2023-05-02T09:06:59.579Z,95322.97
2023-05-02T09:09:42.726Z,95336.81
2023-05-02T09:12:30.301Z,95319.53
2023-05-02T09:15:16.879Z,95313.72
2023-05-02T09:18:01.568Z,95323.84
2023-05-02T09:20:44.764Z,95322.22
2023-05-02T09:23:34.813Z,95316.59
2023-05-02T09:26:19.814Z,95319.59
2023-05-02T09:29:06.021Z,95311.72
2023-05-02T09:31:56.313Z,95320.84
2023-05-02T09:34:40.008Z,95316.56
2023-05-02T09:37:35.935Z,95304.50
2023-05-02T09:40:19.938Z,95315.66
2023-05-02T09:43:16.418Z,95306.50
2023-05-02T09:46:02.951Z,95314.53
2023-05-02T09:48:57.983Z,95307.53
2023-05-02T09:51:41.636Z,95295.78
2023-05-02T09:54:38.083Z,95307.56
2023-05-02T09:57:22.037Z,95291.81
2023-05-02T10:00:05.975Z,95281.75
2023-05-02T10:02:52.453Z,95279.81
2023-05-02T10:05:39.005Z,95275.03
2023-05-02T10:08:23.067Z,95287.31
2023-05-02T10:11:09.248Z,95279.81
2023-05-02T10:13:54.230Z,95268.91
2023-05-02T10:16:41.463Z,95274.56
2023-05-02T10:19:32.155Z,95269.53
2023-05-02T10:22:15.636Z,95270.38
2023-05-02T10:25:01.130Z,95263.91
2023-05-02T10:27:44.800Z,95265.09
2023-05-02T10:30:28.372Z,95268.44
2023-05-02T10:33:15.077Z,95278.22
2023-05-02T10:36:00.042Z,95253.66
2023-05-02T10:38:43.815Z,95242.16
2023-05-02T10:41:30.055Z,95261.44
2023-05-02T10:44:13.707Z,95261.00
2023-05-02T10:46:57.232Z,95245.19
2023-05-02T10:49:53.754Z,95257.25
2023-05-02T10:52:41.365Z,95237.81
2023-05-02T10:55:25.494Z,95234.91
2023-05-02T10:58:27.044Z,95242.72
2023-05-02T11:01:41.949Z,95244.03
2023-05-02T11:04:25.866Z,95250.22
2023-05-02T11:07:20.249Z,95229.41
2023-05-02T11:10:36.656Z,95225.19
2023-05-02T11:13:50.412Z,95238.34
2023-05-02T11:17:06.929Z,95230.81
2023-05-02T11:20:29.301Z,95229.53
2023-05-02T11:23:26.342Z,95217.16
2023-05-02T11:26:23.299Z,95221.84
2023-05-02T11:29:07.782Z,95226.44
2023-05-02T11:31:59.506Z,95222.88
2023-05-02T11:34:46.096Z,95219.94
2023-05-02T11:37:32.722Z,95226.63
2023-05-02T11:40:17.039Z,95213.66
2023-05-02T11:43:02.740Z,95230.63
2023-05-02T11:45:47.411Z,95217.50
2023-05-02T11:48:31.905Z,95207.25
2023-05-02T11:51:15.453Z,95204.13
2023-05-02T11:54:00.197Z,95204.81
2023-05-02T11:56:43.987Z,95203.13
2023-05-02T11:59:27.432Z,95206.94
2023-05-02T12:02:12.032Z,95214.34
2023-05-02T12:04:55.222Z,95189.25
2023-05-02T12:07:39.059Z,95185.50
2023-05-02T12:10:22.302Z,95175.00
2023-05-02T12:13:06.743Z,95183.50
2023-05-02T12:15:51.822Z,95180.81
2023-05-02T12:18:37.013Z,95178.09
2023-05-02T12:21:20.958Z,95174.19
2023-05-02T12:24:04.698Z,95163.19
2023-05-02T12:26:49.368Z,95179.53
2023-05-02T12:29:45.385Z,95163.78
2023-05-02T12:32:30.207Z,95159.78
2023-05-02T12:35:24.042Z,95164.75
2023-05-02T12:38:12.513Z,95152.06
2023-05-02T12:40:57.874Z,95149.97
2023-05-02T12:43:48.652Z,95132.00
2023-05-02T12:46:32.644Z,95139.69
2023-05-02T12:49:18.174Z,95152.13
2023-05-02T12:52:04.773Z,95134.25
2023-05-02T12:54:51.705Z,95134.25
2023-05-02T12:57:34.826Z,95133.88
2023-05-02T13:00:18.821Z,95139.56
2023-05-02T13:03:02.218Z,95133.50
2023-05-02T13:05:45.511Z,95143.03
2023-05-02T13:08:31.392Z,95149.47
2023-05-02T13:11:14.824Z,95144.81
2023-05-02T13:14:00.300Z,95137.97
2023-05-02T13:16:43.499Z,95146.41
2023-05-02T13:19:29.308Z,95134.84
2023-05-02T13:22:12.420Z,95135.09
2023-05-02T13:24:57.154Z,95128.22
2023-05-02T13:27:41.319Z,95145.88
2023-05-02T13:30:24.514Z,95135.06
2023-05-02T13:33:08.101Z,95140.91
2023-05-02T13:35:51.610Z,95137.28
2023-05-02T13:38:35.388Z,95128.09
2023-05-02T13:41:20.268Z,95129.41
2023-05-02T13:44:04.412Z,95134.94
2023-05-02T13:46:47.978Z,95137.63
2023-05-02T13:49:31.311Z,95146.03
2023-05-02T13:52:14.498Z,95134.50
2023-05-02T13:54:57.728Z,95127.16
2023-05-02T13:57:42.298Z,95130.88
2023-05-02T14:00:28.621Z,95121.91
2023-05-02T14:03:13.655Z,95118.22
2023-05-02T14:05:56.962Z,95128.75
2023-05-02T14:08:41.406Z,95137.72
2023-05-02T14:11:24.632Z,95132.19
2023-05-02T14:14:12.503Z,95131.13
2023-05-02T14:16:56.073Z,95125.06
2023-05-02T14:19:39.301Z,95117.19
2023-05-02T14:22:22.387Z,95123.97
2023-05-02T14:25:06.113Z,95122.16
2023-05-02T14:27:49.283Z,95120.84
2023-05-02T14:30:33.983Z,95129.81
2023-05-02T14:33:17.351Z,95123.53
2023-05-02T14:36:00.732Z,95123.75
2023-05-02T14:38:43.919Z,95117.47
2023-05-02T14:41:27.769Z,95120.88
2023-05-02T14:44:10.921Z,95125.06
2023-05-02T14:46:58.777Z,95122.47
2023-05-02T14:49:42.200Z,95118.25
2023-05-02T14:52:25.475Z,95126.13
2023-05-02T14:55:09.225Z,95121.94
2023-05-02T14:57:52.576Z,95132.47
2023-05-02T15:00:38.172Z,95121.41
2023-05-02T15:03:23.247Z,95130.34
2023-05-02T15:06:06.593Z,95131.16
2023-05-02T15:08:53.009Z,95122.75
2023-05-02T15:11:36.186Z,95127.19
2023-05-02T15:14:19.304Z,95113.81
2023-05-02T15:17:02.719Z,95122.72
2023-05-02T15:19:47.499Z,95119.88
2023-05-02T15:22:30.607Z,95116.16
2023-05-02T15:25:13.864Z,95126.16
2023-05-02T15:27:57.031Z,95127.75
2023-05-02T15:30:41.679Z,95123.03
2023-05-02T15:33:24.854Z,95123.56
2023-05-02T15:36:10.156Z,95113.81
2023-05-02T15:38:53.302Z,95120.94
2023-05-02T15:41:37.153Z,95112.50
2023-05-02T15:44:20.511Z,95122.25
2023-05-02T15:47:03.739Z,95124.84
2023-05-02T15:49:47.373Z,95114.34
2023-05-02T15:52:31.998Z,95110.41
2023-05-02T15:55:15.209Z,95106.69
2023-05-02T15:57:58.818Z,95101.97
2023-05-02T16:00:42.295Z,95109.56
2023-05-02T16:03:25.561Z,95111.91
2023-05-02T16:06:09.485Z,95119.50
2023-05-02T16:08:54.097Z,95115.56
2023-05-02T16:11:38.595Z,95109.75
2023-05-02T16:14:24.038Z,95123.41
2023-05-02T16:17:07.162Z,95121.81
2023-05-02T16:19:50.363Z,95118.13
2023-05-02T16:22:33.590Z,95118.38
2023-05-02T16:25:18.856Z,95124.38
2023-05-02T16:28:02.267Z,95129.09
2023-05-02T16:30:45.448Z,95124.38
2023-05-02T16:33:28.651Z,95122.81
2023-05-02T16:36:12.125Z,95135.91
2023-05-02T16:38:57.240Z,95142.34
2023-05-02T16:41:42.111Z,95139.47
2023-05-02T16:44:25.489Z,95138.44
2023-05-02T16:47:09.381Z,95130.00
2023-05-02T16:49:56.109Z,95153.88
2023-05-02T16:52:40.025Z,95150.38
2023-05-02T16:55:25.108Z,95146.88
2023-05-02T16:58:10.290Z,95158.66
2023-05-02T17:00:53.762Z,95164.91
2023-05-02T17:03:37.087Z,95158.56
2023-05-02T17:06:23.055Z,95165.03
2023-05-02T17:09:06.558Z,95175.75
2023-05-02T17:11:50.365Z,95175.59
2023-05-02T17:14:35.074Z,95173.78
2023-05-02T17:17:20.525Z,95168.06
2023-05-02T17:20:03.907Z,95169.78
2023-05-02T17:22:47.278Z,95183.31
2023-05-02T17:25:31.418Z,95177.25
2023-05-02T17:28:14.680Z,95176.88
2023-05-02T17:31:00.347Z,95191.00
2023-05-02T17:33:43.862Z,95186.03
2023-05-02T17:36:28.001Z,95190.06
2023-05-02T17:39:17.819Z,95199.88
2023-05-02T17:42:02.191Z,95189.44
2023-05-02T17:44:47.719Z,95192.53
2023-05-02T17:47:32.303Z,95196.63
2023-05-02T17:50:15.659Z,95202.59
2023-05-02T17:53:01.060Z,95212.75
2023-05-02T17:55:44.627Z,95207.13
2023-05-02T17:58:28.453Z,95202.75
2023-05-02T18:01:12.441Z,95203.72
2023-05-02T18:03:59.510Z,95215.28
2023-05-02T18:06:42.865Z,95208.00
2023-05-02T18:09:25.962Z,95208.00
2023-05-02T18:12:09.809Z,95206.06
2023-05-02T18:14:54.027Z,95215.38
2023-05-02T18:17:39.048Z,95209.75
2023-05-02T18:20:23.660Z,95223.09
2023-05-02T18:23:06.681Z,95211.59
2023-05-02T18:25:49.936Z,95205.72
2023-05-02T18:28:34.652Z,95220.31
2023-05-02T18:31:18.267Z,95211.34
2023-05-02T18:34:01.369Z,95210.56
2023-05-02T18:36:46.272Z,95209.13
2023-05-02T18:39:31.901Z,95208.19
2023-05-02T18:42:17.602Z,95218.94
2023-05-02T18:45:01.462Z,95219.09
2023-05-02T18:47:45.139Z,95222.44
2023-05-02T18:50:28.394Z,95210.00
2023-05-02T18:53:13.364Z,95211.22
2023-05-02T18:55:58.026Z,95214.06
2023-05-02T18:58:41.143Z,95217.56
2023-05-02T19:01:25.130Z,95213.25
2023-05-02T19:04:08.411Z,95216.44
2023-05-02T19:06:51.679Z,95222.69
2023-05-02T19:09:36.292Z,95212.78
2023-05-02T19:12:19.417Z,95203.59
2023-05-02T19:15:02.966Z,95214.22
2023-05-02T19:17:46.522Z,95210.16
2023-05-02T19:20:30.422Z,95207.41
2023-05-02T19:23:18.953Z,95197.97
2023-05-02T19:26:04.837Z,95201.38
2023-05-02T19:28:48.215Z,95192.66
2023-05-02T19:31:31.622Z,95205.00
2023-05-02T19:34:14.784Z,95204.16
2023-05-02T19:36:57.915Z,95199.38
2023-05-02T19:39:41.085Z,95207.22
2023-05-02T19:42:25.548Z,95199.88
2023-05-02T19:45:09.988Z,95199.25
2023-05-02T19:47:53.137Z,95208.69
2023-05-02T19:50:36.360Z,95213.41
2023-05-02T19:53:19.807Z,95217.69
2023-05-02T19:56:04.867Z,95215.72
2023-05-02T19:58:49.755Z,95218.41
2023-05-02T20:01:32.891Z,95210.63
2023-05-02T20:04:16.056Z,95217.19
2023-05-02T20:06:59.237Z,95210.88
2023-05-02T20:09:42.400Z,95216.91
2023-05-02T20:12:25.985Z,95219.50
2023-05-02T20:15:11.333Z,95223.38
2023-05-02T20:17:57.086Z,95229.31
2023-05-02T20:20:40.394Z,95219.63
2023-05-02T20:23:23.825Z,95229.59
2023-05-02T20:26:06.982Z,95232.81
2023-05-02T20:28:50.411Z,95235.13
2023-05-02T20:31:36.369Z,95230.28
2023-05-02T20:34:19.632Z,95233.91
2023-05-02T20:37:03.858Z,95239.47
2023-05-02T20:39:46.910Z,95241.09
2023-05-02T20:42:30.124Z,95233.69
2023-05-02T20:45:15.131Z,95235.41
2023-05-02T20:47:59.708Z,95234.41
2023-05-02T20:50:42.930Z,95244.19
2023-05-02T20:53:26.169Z,95237.91
2023-05-02T20:56:10.819Z,95239.97
2023-05-02T20:58:54.303Z,95246.31
2023-05-02T21:01:37.560Z,95243.63
2023-05-02T21:04:22.300Z,95252.59
2023-05-02T21:07:05.478Z,95243.91
2023-05-02T21:09:49.072Z,95248.34
2023-05-02T21:12:32.179Z,95272.91
2023-05-02T21:15:15.539Z,95260.44
2023-05-02T21:18:02.348Z,95265.50
2023-05-02T21:20:49.353Z,95261.72
2023-05-02T21:23:32.474Z,95256.00
2023-05-02T21:26:15.695Z,95264.94
2023-05-02T21:28:59.173Z,95271.16
2023-05-02T21:31:42.363Z,95276.97
2023-05-02T21:34:25.575Z,95277.78
2023-05-02T21:37:10.150Z,95275.53
2023-05-02T21:39:53.368Z,95286.19
2023-05-02T21:42:36.652Z,95285.41
2023-05-02T21:45:20.080Z,95285.97
2023-05-02T21:48:03.313Z,95288.56
2023-05-02T21:50:46.774Z,95297.78
2023-05-02T21:53:31.537Z,95288.81
2023-05-02T21:56:14.746Z,95290.63
2023-05-02T21:58:57.899Z,95308.31
2023-05-02T22:01:41.315Z,95308.22
2023-05-02T22:04:24.938Z,95293.00
2023-05-02T22:07:08.213Z,95292.00
2023-05-02T22:09:52.742Z,95295.75
2023-05-02T22:12:35.896Z,95294.41
2023-05-02T22:15:18.999Z,95296.66
2023-05-02T22:18:04.923Z,95285.31
2023-05-02T22:20:48.770Z,95289.75
2023-05-02T22:23:32.138Z,95280.22
2023-05-02T22:26:16.704Z,95306.34
2023-05-02T22:28:59.819Z,95292.31
2023-05-02T22:31:42.881Z,95288.25
2023-05-02T22:34:26.134Z,95299.22
2023-05-02T22:37:09.705Z,95297.19
2023-05-02T22:39:53.725Z,95293.09
2023-05-02T22:42:38.208Z,95293.78
2023-05-02T22:45:21.409Z,95288.53
2023-05-02T22:48:04.912Z,95302.94
2023-05-02T22:50:49.199Z,95307.94
2023-05-02T22:53:32.751Z,95308.38
2023-05-02T22:56:15.962Z,95308.03
2023-05-02T22:59:01.252Z,95314.97
2023-05-02T23:01:44.384Z,95304.88
2023-05-02T23:04:27.573Z,95292.16
2023-05-02T23:07:11.052Z,95298.31
2023-05-02T23:09:54.285Z,95286.25
2023-05-02T23:12:37.369Z,95295.88
2023-05-02T23:15:21.861Z,95298.59
2023-05-02T23:18:05.179Z,95287.25
2023-05-02T23:20:48.442Z,95289.88
2023-05-02T23:23:31.881Z,95288.75
2023-05-02T23:26:15.139Z,95296.09
2023-05-02T23:28:58.266Z,95297.91
2023-05-02T23:31:43.065Z,95295.09
2023-05-02T23:34:26.547Z,95300.50
2023-05-02T23:37:10.020Z,95296.09
2023-05-02T23:39:53.139Z,95291.31
2023-05-02T23:42:40.302Z,95283.03
2023-05-02T23:45:23.792Z,95284.50
2023-05-02T23:48:08.573Z,95293.91
2023-05-02T23:50:51.945Z,95292.41
2023-05-02T23:53:35.068Z,95300.56
2023-05-02T23:56:18.170Z,95295.13
2023-05-02T23:59:01.211Z,95290.91
